sensor_id;sensor_type;location;lat;lon;timestamp;P1;durP1;ratioP1;P2;durP2;ratioP2
76439;SDS011;65274;44.982;20.060;2023-04-01T00:01:00;10.88;;;3.25;;
76439;SDS011;65274;44.982;20.060;2023-04-01T00:03:27;5.47;;;2.72;;
76439;SDS011;65274;44.982;20.060;2023-04-01T00:05:54;8.18;;;3.10;;
76439;SDS011;65274;44.982;20.060;2023-04-01T00:08:20;8.35;;;3.63;;
76439;SDS011;65274;44.982;20.060;2023-04-01T00:10:47;6.80;;;2.92;;
76439;SDS011;65274;44.982;20.060;2023-04-01T00:13:13;5.82;;;2.90;;
76439;SDS011;65274;44.982;20.060;2023-04-01T00:15:39;4.38;;;3.10;;
76439;SDS011;65274;44.982;20.060;2023-04-01T00:18:05;9.80;;;3.80;;
76439;SDS011;65274;44.982;20.060;2023-04-01T00:20:32;7.03;;;3.05;;
76439;SDS011;65274;44.982;20.060;2023-04-01T00:22:58;11.85;;;3.80;;
76439;SDS011;65274;44.982;20.060;2023-04-01T00:25:24;8.68;;;3.67;;
76439;SDS011;65274;44.982;20.060;2023-04-01T00:27:50;7.03;;;3.70;;
76439;SDS011;65274;44.982;20.060;2023-04-01T00:30:17;8.52;;;3.90;;
76439;SDS011;65274;44.982;20.060;2023-04-01T00:32:43;9.80;;;4.07;;
76439;SDS011;65274;44.982;20.060;2023-04-01T00:35:09;5.97;;;3.85;;
76439;SDS011;65274;44.982;20.060;2023-04-01T00:37:36;8.10;;;4.00;;
76439;SDS011;65274;44.982;20.060;2023-04-01T00:40:02;9.10;;;4.05;;
76439;SDS011;65274;44.982;20.060;2023-04-01T00:42:29;12.60;;;4.22;;
76439;SDS011;65274;44.982;20.060;2023-04-01T00:44:55;7.72;;;3.28;;
76439;SDS011;65274;44.982;20.060;2023-04-01T00:47:22;7.22;;;3.25;;
76439;SDS011;65274;44.982;20.060;2023-04-01T00:49:49;7.82;;;3.50;;
76439;SDS011;65274;44.982;20.060;2023-04-01T00:52:17;7.80;;;3.53;;
76439;SDS011;65274;44.982;20.060;2023-04-01T00:54:45;5.10;;;3.58;;
76439;SDS011;65274;44.982;20.060;2023-04-01T00:57:13;4.90;;;3.10;;
76439;SDS011;65274;44.982;20.060;2023-04-01T00:59:42;8.90;;;4.03;;
76439;SDS011;65274;44.982;20.060;2023-04-01T01:02:10;12.43;;;4.25;;
76439;SDS011;65274;44.982;20.060;2023-04-01T01:04:36;8.00;;;4.38;;
76439;SDS011;65274;44.982;20.060;2023-04-01T01:10:33;5.93;;;3.53;;
76439;SDS011;65274;44.982;20.060;2023-04-01T01:27:38;5.05;;;3.53;;
76439;SDS011;65274;44.982;20.060;2023-04-01T01:30:13;9.17;;;4.03;;
76439;SDS011;65274;44.982;20.060;2023-04-01T01:35:26;9.50;;;4.65;;
76439;SDS011;65274;44.982;20.060;2023-04-01T01:37:55;8.15;;;4.47;;
76439;SDS011;65274;44.982;20.060;2023-04-01T01:42:48;6.30;;;4.45;;
76439;SDS011;65274;44.982;20.060;2023-04-01T01:45:16;7.00;;;4.32;;
76439;SDS011;65274;44.982;20.060;2023-04-01T01:47:44;11.18;;;4.60;;
76439;SDS011;65274;44.982;20.060;2023-04-01T01:50:11;10.15;;;5.75;;
76439;SDS011;65274;44.982;20.060;2023-04-01T01:52:37;10.95;;;5.35;;
76439;SDS011;65274;44.982;20.060;2023-04-01T01:55:22;12.05;;;5.15;;
76439;SDS011;65274;44.982;20.060;2023-04-01T01:57:48;6.97;;;4.88;;
76439;SDS011;65274;44.982;20.060;2023-04-01T02:00:15;9.82;;;4.85;;
76439;SDS011;65274;44.982;20.060;2023-04-01T02:02:42;10.77;;;5.60;;
76439;SDS011;65274;44.982;20.060;2023-04-01T02:05:10;6.37;;;4.77;;
76439;SDS011;65274;44.982;20.060;2023-04-01T02:07:37;7.10;;;4.68;;
76439;SDS011;65274;44.982;20.060;2023-04-01T02:10:05;8.98;;;5.40;;
76439;SDS011;65274;44.982;20.060;2023-04-01T02:12:31;5.60;;;4.70;;
76439;SDS011;65274;44.982;20.060;2023-04-01T02:17:25;5.93;;;4.38;;
76439;SDS011;65274;44.982;20.060;2023-04-01T02:19:57;9.07;;;4.97;;
76439;SDS011;65274;44.982;20.060;2023-04-01T02:22:25;6.10;;;3.70;;
76439;SDS011;65274;44.982;20.060;2023-04-01T02:24:53;12.23;;;5.85;;
76439;SDS011;65274;44.982;20.060;2023-04-01T02:27:20;6.63;;;4.60;;
76439;SDS011;65274;44.982;20.060;2023-04-01T02:29:46;6.03;;;4.65;;
76439;SDS011;65274;44.982;20.060;2023-04-01T02:32:13;11.20;;;5.88;;
76439;SDS011;65274;44.982;20.060;2023-04-01T02:34:40;7.68;;;4.68;;
76439;SDS011;65274;44.982;20.060;2023-04-01T02:37:06;13.10;;;5.05;;
76439;SDS011;65274;44.982;20.060;2023-04-01T02:39:33;10.35;;;4.75;;
76439;SDS011;65274;44.982;20.060;2023-04-01T02:41:59;13.30;;;5.30;;
76439;SDS011;65274;44.982;20.060;2023-04-01T02:44:25;8.73;;;5.30;;
76439;SDS011;65274;44.982;20.060;2023-04-01T02:46:51;8.00;;;4.32;;
76439;SDS011;65274;44.982;20.060;2023-04-01T02:49:18;6.57;;;4.00;;
76439;SDS011;65274;44.982;20.060;2023-04-01T02:51:44;9.60;;;4.18;;
76439;SDS011;65274;44.982;20.060;2023-04-01T02:54:10;5.88;;;4.05;;
76439;SDS011;65274;44.982;20.060;2023-04-01T02:56:36;4.63;;;4.07;;
76439;SDS011;65274;44.982;20.060;2023-04-01T02:59:02;8.68;;;4.85;;
76439;SDS011;65274;44.982;20.060;2023-04-01T03:01:28;7.10;;;4.50;;
76439;SDS011;65274;44.982;20.060;2023-04-01T03:03:54;8.30;;;4.90;;
76439;SDS011;65274;44.982;20.060;2023-04-01T03:06:20;7.25;;;4.22;;
76439;SDS011;65274;44.982;20.060;2023-04-01T03:08:46;9.02;;;5.18;;
76439;SDS011;65274;44.982;20.060;2023-04-01T03:11:13;6.80;;;4.97;;
76439;SDS011;65274;44.982;20.060;2023-04-01T03:13:39;13.18;;;5.22;;
76439;SDS011;65274;44.982;20.060;2023-04-01T03:16:05;10.80;;;4.90;;
76439;SDS011;65274;44.982;20.060;2023-04-01T03:18:31;7.18;;;4.90;;
76439;SDS011;65274;44.982;20.060;2023-04-01T03:21:11;9.50;;;4.68;;
76439;SDS011;65274;44.982;20.060;2023-04-01T03:23:37;12.38;;;7.05;;
76439;SDS011;65274;44.982;20.060;2023-04-01T03:26:03;16.13;;;5.63;;
76439;SDS011;65274;44.982;20.060;2023-04-01T03:28:29;10.55;;;5.43;;
76439;SDS011;65274;44.982;20.060;2023-04-01T03:30:55;5.97;;;4.95;;
76439;SDS011;65274;44.982;20.060;2023-04-01T03:33:21;6.68;;;4.75;;
76439;SDS011;65274;44.982;20.060;2023-04-01T03:35:48;9.45;;;4.30;;
76439;SDS011;65274;44.982;20.060;2023-04-01T03:38:16;7.80;;;4.63;;
76439;SDS011;65274;44.982;20.060;2023-04-01T03:40:43;5.50;;;3.97;;
76439;SDS011;65274;44.982;20.060;2023-04-01T03:43:09;4.55;;;3.42;;
76439;SDS011;65274;44.982;20.060;2023-04-01T03:45:36;5.47;;;3.80;;
76439;SDS011;65274;44.982;20.060;2023-04-01T03:48:02;6.75;;;3.67;;
76439;SDS011;65274;44.982;20.060;2023-04-01T03:50:28;6.15;;;3.80;;
76439;SDS011;65274;44.982;20.060;2023-04-01T03:52:54;5.18;;;4.13;;
76439;SDS011;65274;44.982;20.060;2023-04-01T03:55:20;6.32;;;3.47;;
76439;SDS011;65274;44.982;20.060;2023-04-01T03:57:46;4.95;;;3.53;;
76439;SDS011;65274;44.982;20.060;2023-04-01T04:00:12;4.75;;;3.17;;
76439;SDS011;65274;44.982;20.060;2023-04-01T04:02:39;4.95;;;3.33;;
76439;SDS011;65274;44.982;20.060;2023-04-01T04:05:05;3.85;;;3.00;;
76439;SDS011;65274;44.982;20.060;2023-04-01T04:07:31;5.63;;;3.53;;
76439;SDS011;65274;44.982;20.060;2023-04-01T04:09:59;6.75;;;2.92;;
76439;SDS011;65274;44.982;20.060;2023-04-01T04:12:25;3.85;;;3.03;;
76439;SDS011;65274;44.982;20.060;2023-04-01T04:14:51;5.05;;;3.72;;
76439;SDS011;65274;44.982;20.060;2023-04-01T04:17:17;6.60;;;3.38;;
76439;SDS011;65274;44.982;20.060;2023-04-01T04:19:43;5.43;;;3.90;;
76439;SDS011;65274;44.982;20.060;2023-04-01T04:22:09;5.05;;;3.30;;
76439;SDS011;65274;44.982;20.060;2023-04-01T04:24:35;5.18;;;4.60;;
76439;SDS011;65274;44.982;20.060;2023-04-01T04:27:02;10.23;;;4.13;;
76439;SDS011;65274;44.982;20.060;2023-04-01T04:29:28;6.18;;;4.38;;
76439;SDS011;65274;44.982;20.060;2023-04-01T04:31:54;3.33;;;3.03;;
76439;SDS011;65274;44.982;20.060;2023-04-01T04:34:20;6.75;;;3.60;;
76439;SDS011;65274;44.982;20.060;2023-04-01T04:36:47;4.63;;;3.30;;
76439;SDS011;65274;44.982;20.060;2023-04-01T04:39:13;4.78;;;2.88;;
76439;SDS011;65274;44.982;20.060;2023-04-01T04:41:40;7.85;;;2.97;;
76439;SDS011;65274;44.982;20.060;2023-04-01T04:44:06;5.07;;;2.42;;
76439;SDS011;65274;44.982;20.060;2023-04-01T04:46:32;4.40;;;2.42;;
76439;SDS011;65274;44.982;20.060;2023-04-01T04:48:58;4.55;;;2.78;;
76439;SDS011;65274;44.982;20.060;2023-04-01T04:51:24;6.82;;;3.63;;
76439;SDS011;65274;44.982;20.060;2023-04-01T04:53:51;4.30;;;2.97;;
76439;SDS011;65274;44.982;20.060;2023-04-01T04:56:20;4.13;;;2.30;;
76439;SDS011;65274;44.982;20.060;2023-04-01T04:58:47;6.57;;;3.85;;
76439;SDS011;65274;44.982;20.060;2023-04-01T05:01:15;5.85;;;3.13;;
76439;SDS011;65274;44.982;20.060;2023-04-01T05:03:41;4.90;;;3.08;;
76439;SDS011;65274;44.982;20.060;2023-04-01T05:06:08;6.05;;;3.03;;
76439;SDS011;65274;44.982;20.060;2023-04-01T05:08:34;3.85;;;2.95;;
76439;SDS011;65274;44.982;20.060;2023-04-01T05:11:00;5.35;;;3.20;;
76439;SDS011;65274;44.982;20.060;2023-04-01T05:13:26;4.15;;;2.80;;
76439;SDS011;65274;44.982;20.060;2023-04-01T05:15:53;4.38;;;3.08;;
76439;SDS011;65274;44.982;20.060;2023-04-01T05:18:19;4.75;;;3.40;;
76439;SDS011;65274;44.982;20.060;2023-04-01T05:20:47;3.70;;;3.20;;
76439;SDS011;65274;44.982;20.060;2023-04-01T05:23:13;5.13;;;3.30;;
76439;SDS011;65274;44.982;20.060;2023-04-01T05:25:40;4.75;;;3.03;;
76439;SDS011;65274;44.982;20.060;2023-04-01T05:28:06;6.38;;;2.97;;
76439;SDS011;65274;44.982;20.060;2023-04-01T05:30:32;3.33;;;2.83;;
76439;SDS011;65274;44.982;20.060;2023-04-01T05:32:58;4.25;;;2.88;;
76439;SDS011;65274;44.982;20.060;2023-04-01T05:35:24;2.95;;;2.75;;
76439;SDS011;65274;44.982;20.060;2023-04-01T05:37:50;3.35;;;2.90;;
76439;SDS011;65274;44.982;20.060;2023-04-01T05:40:16;4.07;;;2.58;;
76439;SDS011;65274;44.982;20.060;2023-04-01T05:42:42;6.28;;;3.45;;
76439;SDS011;65274;44.982;20.060;2023-04-01T05:45:09;8.75;;;4.47;;
76439;SDS011;65274;44.982;20.060;2023-04-01T05:47:35;5.30;;;4.07;;
76439;SDS011;65274;44.982;20.060;2023-04-01T05:50:01;5.22;;;4.47;;
76439;SDS011;65274;44.982;20.060;2023-04-01T05:52:27;8.45;;;5.00;;
76439;SDS011;65274;44.982;20.060;2023-04-01T05:54:53;8.57;;;5.70;;
76439;SDS011;65274;44.982;20.060;2023-04-01T05:57:19;8.45;;;4.72;;
76439;SDS011;65274;44.982;20.060;2023-04-01T05:59:46;6.55;;;4.35;;
76439;SDS011;65274;44.982;20.060;2023-04-01T06:02:12;7.65;;;4.30;;
76439;SDS011;65274;44.982;20.060;2023-04-01T06:04:38;8.75;;;4.97;;
76439;SDS011;65274;44.982;20.060;2023-04-01T06:07:09;6.00;;;4.93;;
76439;SDS011;65274;44.982;20.060;2023-04-01T06:09:36;9.93;;;5.55;;
76439;SDS011;65274;44.982;20.060;2023-04-01T06:19:29;13.25;;;5.63;;
76439;SDS011;65274;44.982;20.060;2023-04-01T06:35:17;10.73;;;6.60;;
76439;SDS011;65274;44.982;20.060;2023-04-01T06:37:54;7.75;;;5.93;;
76439;SDS011;65274;44.982;20.060;2023-04-01T06:40:38;9.73;;;7.03;;
76439;SDS011;65274;44.982;20.060;2023-04-01T06:48:22;10.43;;;5.90;;
76439;SDS011;65274;44.982;20.060;2023-04-01T06:50:55;9.18;;;6.15;;
76439;SDS011;65274;44.982;20.060;2023-04-01T06:55:55;11.48;;;7.75;;
76439;SDS011;65274;44.982;20.060;2023-04-01T06:58:24;8.77;;;7.00;;
76439;SDS011;65274;44.982;20.060;2023-04-01T07:00:53;12.50;;;7.88;;
76439;SDS011;65274;44.982;20.060;2023-04-01T07:05:46;12.90;;;8.15;;
76439;SDS011;65274;44.982;20.060;2023-04-01T07:08:13;13.00;;;7.60;;
76439;SDS011;65274;44.982;20.060;2023-04-01T07:10:55;12.43;;;9.05;;
76439;SDS011;65274;44.982;20.060;2023-04-01T07:13:36;14.95;;;10.05;;
76439;SDS011;65274;44.982;20.060;2023-04-01T07:18:42;12.77;;;9.40;;
76439;SDS011;65274;44.982;20.060;2023-04-01T07:21:13;10.02;;;8.07;;
76439;SDS011;65274;44.982;20.060;2023-04-01T07:23:44;12.90;;;9.40;;
76439;SDS011;65274;44.982;20.060;2023-04-01T07:28:37;12.00;;;8.98;;
76439;SDS011;65274;44.982;20.060;2023-04-01T07:31:18;13.98;;;8.98;;
76439;SDS011;65274;44.982;20.060;2023-04-01T07:33:50;9.00;;;7.22;;
76439;SDS011;65274;44.982;20.060;2023-04-01T07:36:24;12.60;;;7.30;;
76439;SDS011;65274;44.982;20.060;2023-04-01T07:51:35;12.98;;;7.45;;
76439;SDS011;65274;44.982;20.060;2023-04-01T08:10:28;15.85;;;10.15;;
76439;SDS011;65274;44.982;20.060;2023-04-01T08:20:50;21.27;;;12.63;;
76439;SDS011;65274;44.982;20.060;2023-04-01T08:35:42;8.82;;;6.22;;
76439;SDS011;65274;44.982;20.060;2023-04-01T08:38:13;11.60;;;6.25;;
76439;SDS011;65274;44.982;20.060;2023-04-01T08:40:55;12.73;;;9.18;;
76439;SDS011;65274;44.982;20.060;2023-04-01T08:54:14;7.68;;;5.63;;
76439;SDS011;65274;44.982;20.060;2023-04-01T09:02:23;11.10;;;4.47;;
76439;SDS011;65274;44.982;20.060;2023-04-01T09:15:24;9.30;;;4.38;;
76439;SDS011;65274;44.982;20.060;2023-04-01T09:20:26;6.13;;;4.32;;
76439;SDS011;65274;44.982;20.060;2023-04-01T09:23:14;4.53;;;2.92;;
76439;SDS011;65274;44.982;20.060;2023-04-01T09:28:28;10.20;;;6.68;;
76439;SDS011;65274;44.982;20.060;2023-04-01T09:41:53;24.80;;;22.27;;
76439;SDS011;65274;44.982;20.060;2023-04-01T09:44:25;10.85;;;8.75;;
76439;SDS011;65274;44.982;20.060;2023-04-01T09:46:59;10.38;;;8.82;;
76439;SDS011;65274;44.982;20.060;2023-04-01T09:54:54;9.48;;;8.50;;
76439;SDS011;65274;44.982;20.060;2023-04-01T10:39:17;4.43;;;3.55;;
76439;SDS011;65274;44.982;20.060;2023-04-01T10:49:34;6.68;;;2.72;;
76439;SDS011;65274;44.982;20.060;2023-04-01T10:52:19;5.32;;;2.67;;
76439;SDS011;65274;44.982;20.060;2023-04-01T10:58:08;4.78;;;3.25;;
76439;SDS011;65274;44.982;20.060;2023-04-01T11:13:08;5.00;;;2.58;;
76439;SDS011;65274;44.982;20.060;2023-04-01T11:31:04;10.70;;;7.88;;
76439;SDS011;65274;44.982;20.060;2023-04-01T11:39:34;19.13;;;10.25;;
76439;SDS011;65274;44.982;20.060;2023-04-01T11:44:35;12.93;;;7.68;;
76439;SDS011;65274;44.982;20.060;2023-04-01T11:49:49;16.90;;;9.00;;
76439;SDS011;65274;44.982;20.060;2023-04-01T12:02:50;8.30;;;6.13;;
76439;SDS011;65274;44.982;20.060;2023-04-01T12:22:59;3.95;;;2.25;;
76439;SDS011;65274;44.982;20.060;2023-04-01T12:28:37;2.22;;;2.08;;
76439;SDS011;65274;44.982;20.060;2023-04-01T12:36:48;5.15;;;3.78;;
76439;SDS011;65274;44.982;20.060;2023-04-01T12:52:37;10.35;;;4.50;;
76439;SDS011;65274;44.982;20.060;2023-04-01T12:57:37;9.25;;;6.78;;
76439;SDS011;65274;44.982;20.060;2023-04-01T13:07:51;10.50;;;4.22;;
76439;SDS011;65274;44.982;20.060;2023-04-01T13:10:27;8.45;;;4.10;;
76439;SDS011;65274;44.982;20.060;2023-04-01T13:23:40;13.85;;;5.75;;
76439;SDS011;65274;44.982;20.060;2023-04-01T13:26:13;10.55;;;6.43;;
76439;SDS011;65274;44.982;20.060;2023-04-01T13:31:26;13.18;;;6.38;;
76439;SDS011;65274;44.982;20.060;2023-04-01T13:39:47;9.13;;;5.70;;
76439;SDS011;65274;44.982;20.060;2023-04-01T13:45:15;6.35;;;4.30;;
76439;SDS011;65274;44.982;20.060;2023-04-01T13:53:31;13.55;;;7.90;;
76439;SDS011;65274;44.982;20.060;2023-04-01T14:01:31;16.38;;;10.90;;
76439;SDS011;65274;44.982;20.060;2023-04-01T14:24:45;5.60;;;3.40;;
76439;SDS011;65274;44.982;20.060;2023-04-01T14:32:45;19.27;;;11.15;;
76439;SDS011;65274;44.982;20.060;2023-04-01T14:37:58;13.18;;;5.45;;
76439;SDS011;65274;44.982;20.060;2023-04-01T14:40:33;4.53;;;3.50;;
76439;SDS011;65274;44.982;20.060;2023-04-01T14:50:50;7.10;;;4.22;;
76439;SDS011;65274;44.982;20.060;2023-04-01T14:53:27;6.20;;;3.50;;
76439;SDS011;65274;44.982;20.060;2023-04-01T14:56:02;13.68;;;7.00;;
76439;SDS011;65274;44.982;20.060;2023-04-01T14:58:47;8.23;;;4.53;;
76439;SDS011;65274;44.982;20.060;2023-04-01T15:04:02;13.27;;;7.40;;
76439;SDS011;65274;44.982;20.060;2023-04-01T15:14:18;7.47;;;5.60;;
76439;SDS011;65274;44.982;20.060;2023-04-01T15:22:01;10.02;;;6.30;;
76439;SDS011;65274;44.982;20.060;2023-04-01T15:33:11;11.07;;;6.07;;
76439;SDS011;65274;44.982;20.060;2023-04-01T15:35:14;4.30;;;3.78;;
76439;SDS011;65274;44.982;20.060;2023-04-01T15:42:54;19.50;;;9.40;;
76439;SDS011;65274;44.982;20.060;2023-04-01T15:50:46;16.48;;;7.07;;
76439;SDS011;65274;44.982;20.060;2023-04-01T15:58:39;4.97;;;2.40;;
76439;SDS011;65274;44.982;20.060;2023-04-01T16:11:14;3.60;;;2.35;;
76439;SDS011;65274;44.982;20.060;2023-04-01T16:13:53;4.47;;;2.97;;
76439;SDS011;65274;44.982;20.060;2023-04-01T16:16:27;4.15;;;3.00;;
76439;SDS011;65274;44.982;20.060;2023-04-01T16:24:20;5.22;;;3.85;;
76439;SDS011;65274;44.982;20.060;2023-04-01T16:26:50;5.30;;;3.67;;
76439;SDS011;65274;44.982;20.060;2023-04-01T16:32:17;6.05;;;3.17;;
76439;SDS011;65274;44.982;20.060;2023-04-01T16:35:00;5.13;;;2.72;;
76439;SDS011;65274;44.982;20.060;2023-04-01T16:37:33;3.10;;;2.67;;
76439;SDS011;65274;44.982;20.060;2023-04-01T16:42:48;4.10;;;2.90;;
76439;SDS011;65274;44.982;20.060;2023-04-01T16:50:30;3.13;;;2.50;;
76439;SDS011;65274;44.982;20.060;2023-04-01T16:53:09;4.65;;;2.40;;
76439;SDS011;65274;44.982;20.060;2023-04-01T16:55:43;4.53;;;3.15;;
76439;SDS011;65274;44.982;20.060;2023-04-01T16:58:10;5.38;;;3.33;;
76439;SDS011;65274;44.982;20.060;2023-04-01T17:00:41;6.95;;;3.03;;
76439;SDS011;65274;44.982;20.060;2023-04-01T17:03:12;8.15;;;3.70;;
76439;SDS011;65274;44.982;20.060;2023-04-01T17:08:33;5.60;;;3.83;;
76439;SDS011;65274;44.982;20.060;2023-04-01T17:11:18;5.18;;;3.70;;
76439;SDS011;65274;44.982;20.060;2023-04-01T17:19:22;5.35;;;3.10;;
76439;SDS011;65274;44.982;20.060;2023-04-01T17:30:19;6.65;;;4.25;;
76439;SDS011;65274;44.982;20.060;2023-04-01T17:32:31;12.48;;;6.57;;
76439;SDS011;65274;44.982;20.060;2023-04-01T17:38:01;6.53;;;3.70;;
76439;SDS011;65274;44.982;20.060;2023-04-01T17:40:31;5.68;;;3.40;;
76439;SDS011;65274;44.982;20.060;2023-04-01T17:43:07;4.55;;;3.58;;
76439;SDS011;65274;44.982;20.060;2023-04-01T17:45:48;7.50;;;4.95;;
76439;SDS011;65274;44.982;20.060;2023-04-01T17:53:27;4.28;;;3.35;;
76439;SDS011;65274;44.982;20.060;2023-04-01T17:56:02;5.28;;;3.75;;
76439;SDS011;65274;44.982;20.060;2023-04-01T18:09:13;8.25;;;5.25;;
76439;SDS011;65274;44.982;20.060;2023-04-01T18:11:45;8.55;;;5.90;;
76439;SDS011;65274;44.982;20.060;2023-04-01T18:19:36;9.98;;;7.05;;
76439;SDS011;65274;44.982;20.060;2023-04-01T18:27:43;5.18;;;4.40;;
76439;SDS011;65274;44.982;20.060;2023-04-01T18:30:15;5.78;;;4.07;;
76439;SDS011;65274;44.982;20.060;2023-04-01T18:32:50;7.32;;;4.38;;
76439;SDS011;65274;44.982;20.060;2023-04-01T18:35:19;8.52;;;4.45;;
76439;SDS011;65274;44.982;20.060;2023-04-01T18:37:53;7.18;;;4.50;;
76439;SDS011;65274;44.982;20.060;2023-04-01T18:40:29;4.38;;;3.97;;
76439;SDS011;65274;44.982;20.060;2023-04-01T18:43:09;9.00;;;6.47;;
76439;SDS011;65274;44.982;20.060;2023-04-01T18:45:50;12.15;;;7.70;;
76439;SDS011;65274;44.982;20.060;2023-04-01T18:48:33;8.73;;;5.30;;
76439;SDS011;65274;44.982;20.060;2023-04-01T18:51:02;10.73;;;7.47;;
76439;SDS011;65274;44.982;20.060;2023-04-01T18:53:39;10.57;;;6.50;;
76439;SDS011;65274;44.982;20.060;2023-04-01T18:56:11;10.52;;;7.32;;
76439;SDS011;65274;44.982;20.060;2023-04-01T18:58:45;9.98;;;6.55;;
76439;SDS011;65274;44.982;20.060;2023-04-01T19:04:01;8.30;;;6.15;;
76439;SDS011;65274;44.982;20.060;2023-04-01T19:06:32;8.35;;;5.97;;
76439;SDS011;65274;44.982;20.060;2023-04-01T19:14:27;2.58;;;1.95;;
76439;SDS011;65274;44.982;20.060;2023-04-01T19:24:51;17.95;;;8.60;;
76439;SDS011;65274;44.982;20.060;2023-04-01T19:27:27;15.45;;;6.32;;
76439;SDS011;65274;44.982;20.060;2023-04-01T19:38:04;6.28;;;1.50;;
76439;SDS011;65274;44.982;20.060;2023-04-01T19:40:42;1.73;;;1.30;;
76439;SDS011;65274;44.982;20.060;2023-04-01T19:58:54;2.35;;;1.80;;
76439;SDS011;65274;44.982;20.060;2023-04-01T20:01:03;1.23;;;1.13;;
76439;SDS011;65274;44.982;20.060;2023-04-01T20:06:18;4.25;;;1.48;;
76439;SDS011;65274;44.982;20.060;2023-04-01T20:14:17;1.80;;;1.05;;
76439;SDS011;65274;44.982;20.060;2023-04-01T20:16:49;1.30;;;1.10;;
76439;SDS011;65274;44.982;20.060;2023-04-01T20:19:26;1.48;;;1.17;;
76439;SDS011;65274;44.982;20.060;2023-04-01T20:21:55;1.75;;;1.40;;
76439;SDS011;65274;44.982;20.060;2023-04-01T20:24:33;2.42;;;1.30;;
76439;SDS011;65274;44.982;20.060;2023-04-01T20:27:20;6.30;;;2.15;;
76439;SDS011;65274;44.982;20.060;2023-04-01T20:29:56;2.38;;;1.85;;
76439;SDS011;65274;44.982;20.060;2023-04-01T20:32:35;3.08;;;1.95;;
76439;SDS011;65274;44.982;20.060;2023-04-01T20:35:10;2.50;;;1.70;;
76439;SDS011;65274;44.982;20.060;2023-04-01T20:51:15;2.90;;;1.50;;
76439;SDS011;65274;44.982;20.060;2023-04-01T20:53:48;3.17;;;1.70;;
76439;SDS011;65274;44.982;20.060;2023-04-01T20:58:58;2.38;;;1.80;;
76439;SDS011;65274;44.982;20.060;2023-04-01T21:01:38;4.03;;;2.30;;
76439;SDS011;65274;44.982;20.060;2023-04-01T21:09:26;5.18;;;2.30;;
76439;SDS011;65274;44.982;20.060;2023-04-01T21:12:18;3.97;;;2.25;;
76439;SDS011;65274;44.982;20.060;2023-04-01T21:14:54;6.10;;;2.42;;
76439;SDS011;65274;44.982;20.060;2023-04-01T21:22:36;6.70;;;4.18;;
76439;SDS011;65274;44.982;20.060;2023-04-01T21:30:35;4.53;;;3.15;;
76439;SDS011;65274;44.982;20.060;2023-04-01T22:04:44;7.20;;;4.72;;
76439;SDS011;65274;44.982;20.060;2023-04-01T22:07:15;8.35;;;5.25;;
76439;SDS011;65274;44.982;20.060;2023-04-01T22:12:38;8.55;;;5.45;;
76439;SDS011;65274;44.982;20.060;2023-04-01T22:17:56;9.85;;;5.57;;
76439;SDS011;65274;44.982;20.060;2023-04-01T22:20:31;8.70;;;5.40;;
76439;SDS011;65274;44.982;20.060;2023-04-01T22:28:24;8.55;;;5.63;;
76439;SDS011;65274;44.982;20.060;2023-04-01T22:30:59;6.93;;;5.10;;
76439;SDS011;65274;44.982;20.060;2023-04-01T22:33:38;9.05;;;5.75;;
76439;SDS011;65274;44.982;20.060;2023-04-01T22:43:54;7.15;;;5.18;;
76439;SDS011;65274;44.982;20.060;2023-04-01T22:49:41;10.88;;;7.68;;
76439;SDS011;65274;44.982;20.060;2023-04-01T22:54:39;19.80;;;13.43;;
76439;SDS011;65274;44.982;20.060;2023-04-01T23:02:30;25.60;;;17.85;;
76439;SDS011;65274;44.982;20.060;2023-04-01T23:05:03;17.02;;;12.32;;
76439;SDS011;65274;44.982;20.060;2023-04-01T23:07:35;12.43;;;8.73;;
76439;SDS011;65274;44.982;20.060;2023-04-01T23:10:58;8.38;;;6.15;;
76439;SDS011;65274;44.982;20.060;2023-04-01T23:13:00;7.60;;;4.90;;
76439;SDS011;65274;44.982;20.060;2023-04-01T23:15:28;6.90;;;4.47;;
76439;SDS011;65274;44.982;20.060;2023-04-01T23:20:26;6.72;;;4.57;;
76439;SDS011;65274;44.982;20.060;2023-04-01T23:23:05;6.35;;;4.25;;
76439;SDS011;65274;44.982;20.060;2023-04-01T23:25:45;4.70;;;3.90;;
76439;SDS011;65274;44.982;20.060;2023-04-01T23:38:10;6.18;;;3.90;;
76439;SDS011;65274;44.982;20.060;2023-04-01T23:40:36;5.97;;;3.60;;
76439;SDS011;65274;44.982;20.060;2023-04-01T23:43:11;4.93;;;3.85;;
76439;SDS011;65274;44.982;20.060;2023-04-01T23:45:38;3.88;;;2.97;;
76439;SDS011;65274;44.982;20.060;2023-04-01T23:48:09;4.45;;;2.60;;
76439;SDS011;65274;44.982;20.060;2023-04-01T23:50:45;5.47;;;3.13;;
76439;SDS011;65274;44.982;20.060;2023-04-01T23:53:23;4.95;;;2.58;;
76439;SDS011;65274;44.982;20.060;2023-04-01T23:55:50;2.30;;;2.10;;
76439;SDS011;65274;44.982;20.060;2023-04-01T23:58:27;4.00;;;2.50;;
